sensor_id;sensor_type;location;lat;lon;timestamp;P1;durP1;ratioP1;P2;durP2;ratioP2
48215;SDS011;34005;48.844;10.098;2023-03-04T00:00:30;44.53;;;24.25;;
48215;SDS011;34005;48.844;10.098;2023-03-04T00:02:58;69.80;;;36.97;;
48215;SDS011;34005;48.844;10.098;2023-03-04T00:05:26;61.08;;;30.15;;
48215;SDS011;34005;48.844;10.098;2023-03-04T00:07:53;48.08;;;23.75;;
48215;SDS011;34005;48.844;10.098;2023-03-04T00:10:23;35.28;;;19.40;;
48215;SDS011;34005;48.844;10.098;2023-03-04T00:12:50;34.75;;;19.08;;
48215;SDS011;34005;48.844;10.098;2023-03-04T00:15:18;32.42;;;18.35;;
48215;SDS011;34005;48.844;10.098;2023-03-04T00:17:45;37.15;;;20.27;;
48215;SDS011;34005;48.844;10.098;2023-03-04T00:22:40;34.63;;;21.10;;
48215;SDS011;34005;48.844;10.098;2023-03-04T00:25:08;32.17;;;18.60;;
48215;SDS011;34005;48.844;10.098;2023-03-04T00:27:37;33.42;;;19.70;;
48215;SDS011;34005;48.844;10.098;2023-03-04T00:30:05;37.63;;;20.45;;
48215;SDS011;34005;48.844;10.098;2023-03-04T00:32:34;36.30;;;20.77;;
48215;SDS011;34005;48.844;10.098;2023-03-04T00:35:02;34.28;;;21.20;;
48215;SDS011;34005;48.844;10.098;2023-03-04T00:37:29;33.60;;;19.85;;
48215;SDS011;34005;48.844;10.098;2023-03-04T00:39:57;32.60;;;19.85;;
48215;SDS011;34005;48.844;10.098;2023-03-04T00:42:25;34.05;;;19.52;;
48215;SDS011;34005;48.844;10.098;2023-03-04T00:44:53;34.00;;;20.40;;
48215;SDS011;34005;48.844;10.098;2023-03-04T00:47:21;33.40;;;19.05;;
48215;SDS011;34005;48.844;10.098;2023-03-04T00:49:48;37.97;;;21.50;;
48215;SDS011;34005;48.844;10.098;2023-03-04T00:52:16;36.97;;;20.05;;
48215;SDS011;34005;48.844;10.098;2023-03-04T00:54:43;34.80;;;21.17;;
48215;SDS011;34005;48.844;10.098;2023-03-04T00:57:11;34.13;;;19.35;;
48215;SDS011;34005;48.844;10.098;2023-03-04T00:59:39;32.38;;;19.73;;
48215;SDS011;34005;48.844;10.098;2023-03-04T01:02:10;34.00;;;20.05;;
48215;SDS011;34005;48.844;10.098;2023-03-04T01:04:38;37.13;;;20.70;;
48215;SDS011;34005;48.844;10.098;2023-03-04T01:07:07;36.60;;;19.83;;
48215;SDS011;34005;48.844;10.098;2023-03-04T01:09:34;34.65;;;21.48;;
48215;SDS011;34005;48.844;10.098;2023-03-04T01:12:02;32.13;;;19.23;;
48215;SDS011;34005;48.844;10.098;2023-03-04T01:14:29;33.85;;;20.13;;
48215;SDS011;34005;48.844;10.098;2023-03-04T01:16:57;33.75;;;20.48;;
48215;SDS011;34005;48.844;10.098;2023-03-04T01:19:26;33.75;;;19.67;;
48215;SDS011;34005;48.844;10.098;2023-03-04T01:21:54;35.30;;;20.73;;
48215;SDS011;34005;48.844;10.098;2023-03-04T01:24:21;36.53;;;19.63;;
48215;SDS011;34005;48.844;10.098;2023-03-04T01:26:49;32.15;;;18.88;;
48215;SDS011;34005;48.844;10.098;2023-03-04T01:29:16;32.35;;;18.77;;
48215;SDS011;34005;48.844;10.098;2023-03-04T01:31:44;33.97;;;20.45;;
48215;SDS011;34005;48.844;10.098;2023-03-04T01:34:11;34.83;;;20.75;;
48215;SDS011;34005;48.844;10.098;2023-03-04T01:36:40;37.25;;;21.00;;
48215;SDS011;34005;48.844;10.098;2023-03-04T01:39:08;34.83;;;20.42;;
48215;SDS011;34005;48.844;10.098;2023-03-04T01:41:36;36.28;;;21.38;;
48215;SDS011;34005;48.844;10.098;2023-03-04T01:44:03;35.22;;;19.75;;
48215;SDS011;34005;48.844;10.098;2023-03-04T01:46:32;33.65;;;20.40;;
48215;SDS011;34005;48.844;10.098;2023-03-04T01:48:59;37.00;;;20.30;;
48215;SDS011;34005;48.844;10.098;2023-03-04T01:51:27;35.67;;;20.55;;
48215;SDS011;34005;48.844;10.098;2023-03-04T01:53:56;37.10;;;22.73;;
48215;SDS011;34005;48.844;10.098;2023-03-04T01:56:24;36.05;;;21.70;;
48215;SDS011;34005;48.844;10.098;2023-03-04T01:59:05;34.00;;;20.90;;
48215;SDS011;34005;48.844;10.098;2023-03-04T02:01:35;34.85;;;20.25;;
48215;SDS011;34005;48.844;10.098;2023-03-04T02:04:03;41.75;;;21.20;;
48215;SDS011;34005;48.844;10.098;2023-03-04T02:06:33;34.85;;;19.73;;
48215;SDS011;34005;48.844;10.098;2023-03-04T02:09:03;35.20;;;20.67;;
48215;SDS011;34005;48.844;10.098;2023-03-04T02:11:31;36.95;;;20.70;;
48215;SDS011;34005;48.844;10.098;2023-03-04T02:13:59;31.70;;;19.27;;
48215;SDS011;34005;48.844;10.098;2023-03-04T02:16:26;28.23;;;18.67;;
48215;SDS011;34005;48.844;10.098;2023-03-04T02:18:54;34.70;;;19.33;;
48215;SDS011;34005;48.844;10.098;2023-03-04T02:21:22;38.55;;;21.10;;
48215;SDS011;34005;48.844;10.098;2023-03-04T02:23:54;33.90;;;20.42;;
48215;SDS011;34005;48.844;10.098;2023-03-04T02:26:31;33.95;;;20.15;;
48215;SDS011;34005;48.844;10.098;2023-03-04T02:29:00;40.85;;;21.13;;
48215;SDS011;34005;48.844;10.098;2023-03-04T02:31:29;35.00;;;19.55;;
48215;SDS011;34005;48.844;10.098;2023-03-04T02:34:00;34.05;;;19.25;;
48215;SDS011;34005;48.844;10.098;2023-03-04T02:36:29;34.92;;;20.13;;
48215;SDS011;34005;48.844;10.098;2023-03-04T02:39:00;35.40;;;20.15;;
48215;SDS011;34005;48.844;10.098;2023-03-04T02:41:33;36.47;;;20.27;;
48215;SDS011;34005;48.844;10.098;2023-03-04T02:44:01;37.45;;;20.15;;
48215;SDS011;34005;48.844;10.098;2023-03-04T02:46:28;34.03;;;20.88;;
48215;SDS011;34005;48.844;10.098;2023-03-04T02:48:56;36.08;;;21.63;;
48215;SDS011;34005;48.844;10.098;2023-03-04T02:51:24;39.22;;;21.52;;
48215;SDS011;34005;48.844;10.098;2023-03-04T02:53:51;41.67;;;22.10;;
48215;SDS011;34005;48.844;10.098;2023-03-04T02:56:19;32.33;;;20.20;;
48215;SDS011;34005;48.844;10.098;2023-03-04T02:58:48;35.20;;;19.80;;
48215;SDS011;34005;48.844;10.098;2023-03-04T03:01:15;31.35;;;19.58;;
48215;SDS011;34005;48.844;10.098;2023-03-04T03:03:43;39.45;;;21.27;;
48215;SDS011;34005;48.844;10.098;2023-03-04T03:06:10;41.00;;;20.88;;
48215;SDS011;34005;48.844;10.098;2023-03-04T03:08:38;34.25;;;20.20;;
48215;SDS011;34005;48.844;10.098;2023-03-04T03:11:05;37.65;;;22.20;;
48215;SDS011;34005;48.844;10.098;2023-03-04T03:13:34;39.55;;;22.15;;
48215;SDS011;34005;48.844;10.098;2023-03-04T03:16:03;37.25;;;22.30;;
48215;SDS011;34005;48.844;10.098;2023-03-04T03:18:31;35.47;;;20.88;;
48215;SDS011;34005;48.844;10.098;2023-03-04T03:20:59;40.10;;;21.33;;
48215;SDS011;34005;48.844;10.098;2023-03-04T03:23:27;38.65;;;22.45;;
48215;SDS011;34005;48.844;10.098;2023-03-04T03:25:54;38.40;;;21.55;;
48215;SDS011;34005;48.844;10.098;2023-03-04T03:28:22;38.72;;;22.08;;
48215;SDS011;34005;48.844;10.098;2023-03-04T03:30:49;36.00;;;22.52;;
48215;SDS011;34005;48.844;10.098;2023-03-04T03:33:18;37.22;;;23.23;;
48215;SDS011;34005;48.844;10.098;2023-03-04T03:35:45;37.22;;;22.35;;
48215;SDS011;34005;48.844;10.098;2023-03-04T03:38:13;37.97;;;22.45;;
48215;SDS011;34005;48.844;10.098;2023-03-04T03:40:41;41.88;;;23.65;;
48215;SDS011;34005;48.844;10.098;2023-03-04T03:43:09;39.22;;;22.13;;
48215;SDS011;34005;48.844;10.098;2023-03-04T03:45:37;37.08;;;22.63;;
48215;SDS011;34005;48.844;10.098;2023-03-04T03:48:04;40.78;;;23.48;;
48215;SDS011;34005;48.844;10.098;2023-03-04T03:50:33;41.42;;;23.60;;
48215;SDS011;34005;48.844;10.098;2023-03-04T03:53:01;40.67;;;24.13;;
48215;SDS011;34005;48.844;10.098;2023-03-04T03:55:29;44.55;;;25.77;;
48215;SDS011;34005;48.844;10.098;2023-03-04T03:57:56;44.15;;;25.55;;
48215;SDS011;34005;48.844;10.098;2023-03-04T04:00:24;44.53;;;26.77;;
48215;SDS011;34005;48.844;10.098;2023-03-04T04:02:51;46.90;;;27.33;;
48215;SDS011;34005;48.844;10.098;2023-03-04T04:05:20;43.88;;;25.98;;
48215;SDS011;34005;48.844;10.098;2023-03-04T04:07:49;38.78;;;24.85;;
48215;SDS011;34005;48.844;10.098;2023-03-04T04:10:19;43.95;;;26.42;;
48215;SDS011;34005;48.844;10.098;2023-03-04T04:12:47;42.97;;;25.23;;
48215;SDS011;34005;48.844;10.098;2023-03-04T04:15:14;47.03;;;26.58;;
48215;SDS011;34005;48.844;10.098;2023-03-04T04:17:42;43.28;;;25.55;;
48215;SDS011;34005;48.844;10.098;2023-03-04T04:20:10;47.67;;;26.20;;
48215;SDS011;34005;48.844;10.098;2023-03-04T04:22:38;45.47;;;25.63;;
48215;SDS011;34005;48.844;10.098;2023-03-04T04:25:07;44.03;;;24.92;;
48215;SDS011;34005;48.844;10.098;2023-03-04T04:27:35;40.38;;;25.23;;
48215;SDS011;34005;48.844;10.098;2023-03-04T04:30:04;42.88;;;24.52;;
48215;SDS011;34005;48.844;10.098;2023-03-04T04:32:32;46.10;;;27.00;;
48215;SDS011;34005;48.844;10.098;2023-03-04T04:35:00;45.17;;;25.48;;
48215;SDS011;34005;48.844;10.098;2023-03-04T04:37:27;42.63;;;26.05;;
48215;SDS011;34005;48.844;10.098;2023-03-04T04:39:55;44.78;;;24.80;;
48215;SDS011;34005;48.844;10.098;2023-03-04T04:42:24;44.35;;;25.02;;
48215;SDS011;34005;48.844;10.098;2023-03-04T04:44:52;47.60;;;26.13;;
48215;SDS011;34005;48.844;10.098;2023-03-04T04:47:19;45.00;;;25.15;;
48215;SDS011;34005;48.844;10.098;2023-03-04T04:49:47;46.40;;;26.63;;
48215;SDS011;34005;48.844;10.098;2023-03-04T04:52:14;48.08;;;26.50;;
48215;SDS011;34005;48.844;10.098;2023-03-04T04:54:42;43.95;;;26.30;;
48215;SDS011;34005;48.844;10.098;2023-03-04T04:57:09;46.53;;;26.60;;
48215;SDS011;34005;48.844;10.098;2023-03-04T04:59:38;46.72;;;25.42;;
48215;SDS011;34005;48.844;10.098;2023-03-04T05:02:06;42.72;;;24.30;;
48215;SDS011;34005;48.844;10.098;2023-03-04T05:04:33;47.20;;;25.73;;
48215;SDS011;34005;48.844;10.098;2023-03-04T05:07:01;46.17;;;25.77;;
48215;SDS011;34005;48.844;10.098;2023-03-04T05:09:28;45.58;;;25.92;;
48215;SDS011;34005;48.844;10.098;2023-03-04T05:11:56;49.47;;;27.55;;
48215;SDS011;34005;48.844;10.098;2023-03-04T05:14:23;47.33;;;26.05;;
48215;SDS011;34005;48.844;10.098;2023-03-04T05:16:52;45.83;;;25.08;;
48215;SDS011;34005;48.844;10.098;2023-03-04T05:19:20;42.35;;;24.85;;
48215;SDS011;34005;48.844;10.098;2023-03-04T05:21:47;46.03;;;24.75;;
48215;SDS011;34005;48.844;10.098;2023-03-04T05:24:15;48.00;;;25.75;;
48215;SDS011;34005;48.844;10.098;2023-03-04T05:26:43;41.20;;;23.17;;
48215;SDS011;34005;48.844;10.098;2023-03-04T05:29:10;40.97;;;23.40;;
48215;SDS011;34005;48.844;10.098;2023-03-04T05:31:38;40.97;;;24.10;;
48215;SDS011;34005;48.844;10.098;2023-03-04T05:34:07;48.30;;;26.05;;
48215;SDS011;34005;48.844;10.098;2023-03-04T05:36:34;47.25;;;23.25;;
48215;SDS011;34005;48.844;10.098;2023-03-04T05:39:02;36.00;;;21.45;;
48215;SDS011;34005;48.844;10.098;2023-03-04T05:41:29;41.53;;;23.33;;
48215;SDS011;34005;48.844;10.098;2023-03-04T05:43:57;34.13;;;20.63;;
48215;SDS011;34005;48.844;10.098;2023-03-04T05:46:24;38.42;;;23.60;;
48215;SDS011;34005;48.844;10.098;2023-03-04T05:48:53;40.67;;;22.15;;
48215;SDS011;34005;48.844;10.098;2023-03-04T05:51:22;38.25;;;21.45;;
48215;SDS011;34005;48.844;10.098;2023-03-04T05:53:49;32.88;;;20.65;;
48215;SDS011;34005;48.844;10.098;2023-03-04T05:56:18;35.28;;;20.10;;
48215;SDS011;34005;48.844;10.098;2023-03-04T05:58:46;34.97;;;22.30;;
48215;SDS011;34005;48.844;10.098;2023-03-04T06:01:14;37.55;;;20.80;;
48215;SDS011;34005;48.844;10.098;2023-03-04T06:03:42;33.35;;;19.58;;
48215;SDS011;34005;48.844;10.098;2023-03-04T06:06:09;39.83;;;22.88;;
48215;SDS011;34005;48.844;10.098;2023-03-04T06:08:39;39.97;;;22.50;;
48215;SDS011;34005;48.844;10.098;2023-03-04T06:11:06;40.72;;;24.67;;
48215;SDS011;34005;48.844;10.098;2023-03-04T06:13:34;43.25;;;23.83;;
48215;SDS011;34005;48.844;10.098;2023-03-04T06:16:03;46.17;;;24.95;;
48215;SDS011;34005;48.844;10.098;2023-03-04T06:18:31;46.58;;;24.52;;
48215;SDS011;34005;48.844;10.098;2023-03-04T06:20:59;47.03;;;24.38;;
48215;SDS011;34005;48.844;10.098;2023-03-04T06:23:28;47.72;;;26.38;;
48215;SDS011;34005;48.844;10.098;2023-03-04T06:25:58;41.45;;;23.30;;
48215;SDS011;34005;48.844;10.098;2023-03-04T06:28:27;38.03;;;22.73;;
48215;SDS011;34005;48.844;10.098;2023-03-04T06:30:55;39.67;;;23.75;;
48215;SDS011;34005;48.844;10.098;2023-03-04T06:33:24;38.80;;;21.42;;
48215;SDS011;34005;48.844;10.098;2023-03-04T06:35:52;39.03;;;23.52;;
48215;SDS011;34005;48.844;10.098;2023-03-04T06:38:22;38.13;;;22.42;;
48215;SDS011;34005;48.844;10.098;2023-03-04T06:40:50;41.67;;;23.25;;
48215;SDS011;34005;48.844;10.098;2023-03-04T06:43:23;43.40;;;24.50;;
48215;SDS011;34005;48.844;10.098;2023-03-04T06:45:51;44.88;;;26.20;;
48215;SDS011;34005;48.844;10.098;2023-03-04T06:48:19;47.28;;;26.75;;
48215;SDS011;34005;48.844;10.098;2023-03-04T06:50:46;48.25;;;27.77;;
48215;SDS011;34005;48.844;10.098;2023-03-04T06:53:14;48.70;;;28.85;;
48215;SDS011;34005;48.844;10.098;2023-03-04T06:55:41;49.38;;;28.00;;
48215;SDS011;34005;48.844;10.098;2023-03-04T06:58:11;45.13;;;26.00;;
48215;SDS011;34005;48.844;10.098;2023-03-04T07:00:40;53.47;;;30.73;;
48215;SDS011;34005;48.844;10.098;2023-03-04T07:03:07;46.03;;;25.85;;
48215;SDS011;34005;48.844;10.098;2023-03-04T07:05:35;43.75;;;26.60;;
48215;SDS011;34005;48.844;10.098;2023-03-04T07:08:03;47.92;;;26.08;;
48215;SDS011;34005;48.844;10.098;2023-03-04T07:10:32;39.20;;;22.95;;
48215;SDS011;34005;48.844;10.098;2023-03-04T07:12:59;40.83;;;24.75;;
48215;SDS011;34005;48.844;10.098;2023-03-04T07:15:27;38.53;;;23.17;;
48215;SDS011;34005;48.844;10.098;2023-03-04T07:17:57;40.40;;;23.60;;
48215;SDS011;34005;48.844;10.098;2023-03-04T07:20:24;40.60;;;21.88;;
48215;SDS011;34005;48.844;10.098;2023-03-04T07:22:52;42.30;;;22.05;;
48215;SDS011;34005;48.844;10.098;2023-03-04T07:25:19;34.88;;;18.90;;
48215;SDS011;34005;48.844;10.098;2023-03-04T07:27:47;39.85;;;19.92;;
48215;SDS011;34005;48.844;10.098;2023-03-04T07:30:14;34.25;;;19.67;;
48215;SDS011;34005;48.844;10.098;2023-03-04T07:32:42;32.65;;;18.40;;
48215;SDS011;34005;48.844;10.098;2023-03-04T07:35:11;33.08;;;17.67;;
48215;SDS011;34005;48.844;10.098;2023-03-04T07:37:39;32.00;;;17.00;;
48215;SDS011;34005;48.844;10.098;2023-03-04T07:40:07;37.40;;;18.67;;
48215;SDS011;34005;48.844;10.098;2023-03-04T07:42:35;33.30;;;17.98;;
48215;SDS011;34005;48.844;10.098;2023-03-04T07:45:03;31.38;;;16.35;;
48215;SDS011;34005;48.844;10.098;2023-03-04T07:47:33;35.10;;;17.23;;
48215;SDS011;34005;48.844;10.098;2023-03-04T07:50:03;33.30;;;16.52;;
48215;SDS011;34005;48.844;10.098;2023-03-04T07:52:32;34.15;;;17.63;;
48215;SDS011;34005;48.844;10.098;2023-03-04T07:54:59;27.30;;;14.63;;
48215;SDS011;34005;48.844;10.098;2023-03-04T07:57:27;30.50;;;14.90;;
48215;SDS011;34005;48.844;10.098;2023-03-04T07:59:55;29.30;;;15.18;;
48215;SDS011;34005;48.844;10.098;2023-03-04T08:02:23;25.25;;;14.30;;
48215;SDS011;34005;48.844;10.098;2023-03-04T08:04:50;26.00;;;14.57;;
48215;SDS011;34005;48.844;10.098;2023-03-04T08:07:18;29.20;;;15.43;;
48215;SDS011;34005;48.844;10.098;2023-03-04T08:09:46;26.85;;;14.60;;
48215;SDS011;34005;48.844;10.098;2023-03-04T08:12:14;27.00;;;14.95;;
48215;SDS011;34005;48.844;10.098;2023-03-04T08:14:42;28.83;;;15.57;;
48215;SDS011;34005;48.844;10.098;2023-03-04T08:17:10;30.17;;;15.50;;
48215;SDS011;34005;48.844;10.098;2023-03-04T08:19:39;29.30;;;15.60;;
48215;SDS011;34005;48.844;10.098;2023-03-04T08:22:07;29.00;;;14.93;;
48215;SDS011;34005;48.844;10.098;2023-03-04T08:24:35;25.33;;;14.13;;
48215;SDS011;34005;48.844;10.098;2023-03-04T08:27:04;26.40;;;13.90;;
48215;SDS011;34005;48.844;10.098;2023-03-04T08:29:31;29.02;;;15.18;;
48215;SDS011;34005;48.844;10.098;2023-03-04T08:31:59;28.35;;;14.77;;
48215;SDS011;34005;48.844;10.098;2023-03-04T08:34:27;28.25;;;15.65;;
48215;SDS011;34005;48.844;10.098;2023-03-04T08:36:55;25.92;;;13.23;;
48215;SDS011;34005;48.844;10.098;2023-03-04T08:39:22;27.98;;;14.27;;
48215;SDS011;34005;48.844;10.098;2023-03-04T08:41:50;23.52;;;13.18;;
48215;SDS011;34005;48.844;10.098;2023-03-04T08:44:19;25.40;;;13.60;;
48215;SDS011;34005;48.844;10.098;2023-03-04T08:46:46;25.23;;;14.05;;
48215;SDS011;34005;48.844;10.098;2023-03-04T08:49:14;28.00;;;14.93;;
48215;SDS011;34005;48.844;10.098;2023-03-04T08:51:41;24.42;;;13.88;;
48215;SDS011;34005;48.844;10.098;2023-03-04T08:54:10;25.55;;;13.05;;
48215;SDS011;34005;48.844;10.098;2023-03-04T08:56:39;22.95;;;13.23;;
48215;SDS011;34005;48.844;10.098;2023-03-04T08:59:06;22.48;;;12.52;;
48215;SDS011;34005;48.844;10.098;2023-03-04T09:01:35;18.83;;;11.88;;
48215;SDS011;34005;48.844;10.098;2023-03-04T09:04:03;19.35;;;12.15;;
48215;SDS011;34005;48.844;10.098;2023-03-04T09:06:31;19.67;;;11.52;;
48215;SDS011;34005;48.844;10.098;2023-03-04T09:08:58;21.55;;;12.27;;
48215;SDS011;34005;48.844;10.098;2023-03-04T09:11:26;24.20;;;12.95;;
48215;SDS011;34005;48.844;10.098;2023-03-04T09:13:53;25.48;;;14.05;;
48215;SDS011;34005;48.844;10.098;2023-03-04T09:16:21;21.17;;;12.68;;
48215;SDS011;34005;48.844;10.098;2023-03-04T09:18:50;22.00;;;12.70;;
48215;SDS011;34005;48.844;10.098;2023-03-04T09:21:18;23.45;;;13.38;;
48215;SDS011;34005;48.844;10.098;2023-03-04T09:23:46;25.40;;;13.80;;
48215;SDS011;34005;48.844;10.098;2023-03-04T09:26:14;22.52;;;12.27;;
48215;SDS011;34005;48.844;10.098;2023-03-04T09:28:43;19.38;;;11.60;;
48215;SDS011;34005;48.844;10.098;2023-03-04T09:31:11;23.33;;;12.73;;
48215;SDS011;34005;48.844;10.098;2023-03-04T09:33:39;23.45;;;13.15;;
48215;SDS011;34005;48.844;10.098;2023-03-04T09:36:10;21.90;;;13.07;;
48215;SDS011;34005;48.844;10.098;2023-03-04T09:38:40;20.10;;;12.00;;
48215;SDS011;34005;48.844;10.098;2023-03-04T09:41:08;22.02;;;12.88;;
48215;SDS011;34005;48.844;10.098;2023-03-04T09:43:40;21.05;;;13.05;;
48215;SDS011;34005;48.844;10.098;2023-03-04T09:46:11;23.63;;;12.82;;
48215;SDS011;34005;48.844;10.098;2023-03-04T09:48:43;22.73;;;13.43;;
48215;SDS011;34005;48.844;10.098;2023-03-04T09:51:20;21.92;;;12.95;;
48215;SDS011;34005;48.844;10.098;2023-03-04T09:54:07;27.23;;;14.45;;
48215;SDS011;34005;48.844;10.098;2023-03-04T09:56:37;25.35;;;13.80;;
48215;SDS011;34005;48.844;10.098;2023-03-04T09:59:08;23.77;;;13.57;;
48215;SDS011;34005;48.844;10.098;2023-03-04T10:01:45;24.52;;;13.20;;
48215;SDS011;34005;48.844;10.098;2023-03-04T10:04:17;27.80;;;15.23;;
48215;SDS011;34005;48.844;10.098;2023-03-04T10:06:54;22.15;;;13.05;;
48215;SDS011;34005;48.844;10.098;2023-03-04T10:09:23;24.45;;;13.65;;
48215;SDS011;34005;48.844;10.098;2023-03-04T10:11:58;27.50;;;15.82;;
48215;SDS011;34005;48.844;10.098;2023-03-04T10:14:31;26.42;;;14.90;;
48215;SDS011;34005;48.844;10.098;2023-03-04T10:17:02;22.85;;;13.52;;
48215;SDS011;34005;48.844;10.098;2023-03-04T10:19:38;28.90;;;15.63;;
48215;SDS011;34005;48.844;10.098;2023-03-04T10:22:19;22.30;;;13.85;;
48215;SDS011;34005;48.844;10.098;2023-03-04T10:24:53;25.23;;;13.82;;
48215;SDS011;34005;48.844;10.098;2023-03-04T10:27:23;29.63;;;16.02;;
48215;SDS011;34005;48.844;10.098;2023-03-04T10:29:52;25.50;;;14.73;;
48215;SDS011;34005;48.844;10.098;2023-03-04T10:32:19;26.80;;;14.55;;
48215;SDS011;34005;48.844;10.098;2023-03-04T10:34:47;27.33;;;15.30;;
48215;SDS011;34005;48.844;10.098;2023-03-04T10:37:14;26.58;;;14.38;;
48215;SDS011;34005;48.844;10.098;2023-03-04T10:39:44;27.05;;;14.77;;
48215;SDS011;34005;48.844;10.098;2023-03-04T10:42:25;25.83;;;14.02;;
48215;SDS011;34005;48.844;10.098;2023-03-04T10:45:03;25.77;;;15.52;;
48215;SDS011;34005;48.844;10.098;2023-03-04T10:47:48;26.88;;;14.93;;
48215;SDS011;34005;48.844;10.098;2023-03-04T10:50:20;30.98;;;17.30;;
48215;SDS011;34005;48.844;10.098;2023-03-04T10:52:50;34.50;;;17.75;;
48215;SDS011;34005;48.844;10.098;2023-03-04T10:55:21;30.23;;;17.63;;
48215;SDS011;34005;48.844;10.098;2023-03-04T10:57:51;31.60;;;15.73;;
48215;SDS011;34005;48.844;10.098;2023-03-04T11:00:24;29.70;;;15.05;;
48215;SDS011;34005;48.844;10.098;2023-03-04T11:06:02;29.08;;;16.08;;
48215;SDS011;34005;48.844;10.098;2023-03-04T11:08:33;29.17;;;16.90;;
48215;SDS011;34005;48.844;10.098;2023-03-04T11:11:00;27.38;;;15.23;;
48215;SDS011;34005;48.844;10.098;2023-03-04T11:13:28;26.05;;;14.00;;
48215;SDS011;34005;48.844;10.098;2023-03-04T11:15:58;27.70;;;15.75;;
48215;SDS011;34005;48.844;10.098;2023-03-04T11:18:30;27.60;;;15.15;;
48215;SDS011;34005;48.844;10.098;2023-03-04T11:21:07;20.77;;;13.32;;
48215;SDS011;34005;48.844;10.098;2023-03-04T11:23:46;28.80;;;16.10;;
48215;SDS011;34005;48.844;10.098;2023-03-04T11:26:17;25.75;;;14.75;;
48215;SDS011;34005;48.844;10.098;2023-03-04T11:28:48;25.38;;;14.50;;
48215;SDS011;34005;48.844;10.098;2023-03-04T11:31:21;24.20;;;12.98;;
48215;SDS011;34005;48.844;10.098;2023-03-04T11:33:54;25.40;;;14.02;;
48215;SDS011;34005;48.844;10.098;2023-03-04T11:36:28;20.45;;;13.18;;
48215;SDS011;34005;48.844;10.098;2023-03-04T11:39:04;21.27;;;13.52;;
48215;SDS011;34005;48.844;10.098;2023-03-04T11:41:41;21.70;;;12.63;;
48215;SDS011;34005;48.844;10.098;2023-03-04T11:44:14;23.38;;;14.45;;
48215;SDS011;34005;48.844;10.098;2023-03-04T11:46:44;20.95;;;13.65;;
48215;SDS011;34005;48.844;10.098;2023-03-04T11:49:25;25.02;;;14.30;;
48215;SDS011;34005;48.844;10.098;2023-03-04T11:52:08;28.88;;;16.90;;
48215;SDS011;34005;48.844;10.098;2023-03-04T11:54:53;25.85;;;16.52;;
48215;SDS011;34005;48.844;10.098;2023-03-04T11:57:37;31.45;;;16.52;;
48215;SDS011;34005;48.844;10.098;2023-03-04T12:00:18;26.30;;;14.80;;
48215;SDS011;34005;48.844;10.098;2023-03-04T12:03:04;30.37;;;16.83;;
48215;SDS011;34005;48.844;10.098;2023-03-04T12:06:11;29.55;;;16.65;;
48215;SDS011;34005;48.844;10.098;2023-03-04T12:08:50;26.90;;;15.45;;
48215;SDS011;34005;48.844;10.098;2023-03-04T12:11:29;26.35;;;14.00;;
48215;SDS011;34005;48.844;10.098;2023-03-04T12:14:10;21.80;;;12.43;;
48215;SDS011;34005;48.844;10.098;2023-03-04T12:17:04;30.08;;;18.60;;
48215;SDS011;34005;48.844;10.098;2023-03-04T12:22:43;27.65;;;15.65;;
48215;SDS011;34005;48.844;10.098;2023-03-04T12:28:13;25.98;;;15.23;;
48215;SDS011;34005;48.844;10.098;2023-03-04T12:30:53;23.92;;;14.48;;
48215;SDS011;34005;48.844;10.098;2023-03-04T12:33:34;24.05;;;14.52;;
48215;SDS011;34005;48.844;10.098;2023-03-04T12:36:13;27.88;;;15.20;;
48215;SDS011;34005;48.844;10.098;2023-03-04T12:38:52;21.67;;;13.73;;
48215;SDS011;34005;48.844;10.098;2023-03-04T12:41:29;24.05;;;14.38;;
48215;SDS011;34005;48.844;10.098;2023-03-04T12:44:12;24.83;;;14.73;;
48215;SDS011;34005;48.844;10.098;2023-03-04T12:46:45;25.17;;;15.32;;
48215;SDS011;34005;48.844;10.098;2023-03-04T12:49:41;22.25;;;14.15;;
48215;SDS011;34005;48.844;10.098;2023-03-04T12:52:18;23.27;;;13.75;;
48215;SDS011;34005;48.844;10.098;2023-03-04T12:54:54;23.20;;;14.20;;
48215;SDS011;34005;48.844;10.098;2023-03-04T12:57:24;24.60;;;14.32;;
48215;SDS011;34005;48.844;10.098;2023-03-04T12:59:58;25.23;;;14.88;;
48215;SDS011;34005;48.844;10.098;2023-03-04T13:02:39;23.10;;;14.25;;
48215;SDS011;34005;48.844;10.098;2023-03-04T13:05:35;24.35;;;15.05;;
48215;SDS011;34005;48.844;10.098;2023-03-04T13:08:22;25.20;;;15.18;;
48215;SDS011;34005;48.844;10.098;2023-03-04T13:11:01;24.33;;;14.75;;
48215;SDS011;34005;48.844;10.098;2023-03-04T13:13:33;27.25;;;16.27;;
48215;SDS011;34005;48.844;10.098;2023-03-04T13:16:05;27.02;;;15.80;;
48215;SDS011;34005;48.844;10.098;2023-03-04T13:25:01;27.08;;;16.00;;
48215;SDS011;34005;48.844;10.098;2023-03-04T13:33:59;29.10;;;16.33;;
48215;SDS011;34005;48.844;10.098;2023-03-04T13:39:30;24.33;;;14.55;;
48215;SDS011;34005;48.844;10.098;2023-03-04T13:41:59;25.17;;;15.18;;
48215;SDS011;34005;48.844;10.098;2023-03-04T13:51:11;23.38;;;14.23;;
48215;SDS011;34005;48.844;10.098;2023-03-04T13:54:06;26.10;;;15.43;;
48215;SDS011;34005;48.844;10.098;2023-03-04T13:56:40;29.27;;;16.80;;
48215;SDS011;34005;48.844;10.098;2023-03-04T13:59:20;29.10;;;16.77;;
48215;SDS011;34005;48.844;10.098;2023-03-04T14:01:59;26.85;;;15.52;;
48215;SDS011;34005;48.844;10.098;2023-03-04T14:04:32;25.55;;;16.02;;
48215;SDS011;34005;48.844;10.098;2023-03-04T14:09:52;26.15;;;16.70;;
48215;SDS011;34005;48.844;10.098;2023-03-04T14:12:26;28.02;;;17.05;;
48215;SDS011;34005;48.844;10.098;2023-03-04T14:14:56;27.55;;;16.75;;
48215;SDS011;34005;48.844;10.098;2023-03-04T14:17:27;24.23;;;16.33;;
48215;SDS011;34005;48.844;10.098;2023-03-04T14:19:57;28.98;;;18.27;;
48215;SDS011;34005;48.844;10.098;2023-03-04T14:22:30;29.50;;;17.70;;
48215;SDS011;34005;48.844;10.098;2023-03-04T14:25:00;28.42;;;16.90;;
48215;SDS011;34005;48.844;10.098;2023-03-04T14:27:30;29.52;;;17.98;;
48215;SDS011;34005;48.844;10.098;2023-03-04T14:30:02;28.58;;;16.73;;
48215;SDS011;34005;48.844;10.098;2023-03-04T14:32:33;32.78;;;16.60;;
48215;SDS011;34005;48.844;10.098;2023-03-04T14:35:02;34.10;;;19.05;;
48215;SDS011;34005;48.844;10.098;2023-03-04T14:37:35;29.45;;;16.80;;
48215;SDS011;34005;48.844;10.098;2023-03-04T14:40:11;27.98;;;17.15;;
48215;SDS011;34005;48.844;10.098;2023-03-04T14:42:54;26.42;;;17.42;;
48215;SDS011;34005;48.844;10.098;2023-03-04T14:45:40;28.33;;;18.08;;
48215;SDS011;34005;48.844;10.098;2023-03-04T14:48:18;29.67;;;18.60;;
48215;SDS011;34005;48.844;10.098;2023-03-04T14:51:05;33.33;;;18.77;;
48215;SDS011;34005;48.844;10.098;2023-03-04T14:54:01;31.38;;;18.55;;
48215;SDS011;34005;48.844;10.098;2023-03-04T14:56:57;26.38;;;16.65;;
48215;SDS011;34005;48.844;10.098;2023-03-04T15:03:34;31.17;;;16.20;;
48215;SDS011;34005;48.844;10.098;2023-03-04T15:06:22;27.30;;;16.63;;
48215;SDS011;34005;48.844;10.098;2023-03-04T15:12:05;26.85;;;18.00;;